Portada
METAR-TAF:

METAR-TAF

Aeroports :

Bisha, Aràbia Saudita

latitud: 19-59N, longitud: 042-37E, altitud: 1167 m

Observació

L'informe es va fer fa 1 hora i 3 minuts, a les 23:00 UTC
Vent calma
Temperatura 15°C
Humitat 55%
Pressió 1017 hPa
Visibilitat 10 km o més
sense núvols per sota de 1500 mi sense presència de cumulonimbus.

METAR: OEBH 062300Z 00000KT CAVOK 15/06 Q1017 NOSIG

Hora: 03:03 (00:03 UTC)

Pronòstic

L'informe es va fer fa 1 hora i 3 minuts, a les 23:00 UTC
Pronòstic vàlid del 07 a les 00 UTC al 08 a les 06 UTC
Vent 3 kt amb direcció variable
Visibilitat 10 km o més
Escasses núvols a una alçada de 3000 ft
Evolucionant progressivament
l' 07 a les 08 UTC al 07 a les 10 UTC
Vent 8 kt del Sud-Est

TAF: OEBH 062300Z 0700/0806 VRB03KT 9999 FEW030 BECMG 0708/0710 14008KT

Observacions i pronòstics meteorològics de més de 4000 aeroports (METAR i TAF).

Les estacions disponibles són els punts grocs i vermells al mapa.

Posi el ratolí al punt desitjat per veure el nom de l'estació.

Feu clic per veure les observacions i els pronòstics meteorològics.

Per canviar el mapa: feu clic els botons verds amb una creu de color negre per apropar; al botó verd amb un guió per allunyar la imatge; o en les fletxes verdes per a mapes adjacents.


METAR-TAF: